Time;durP1;ratioP1;P1;durP2;ratioP2;P2;SDS_P1;SDS_P2;PMS_P1;PMS_P2;Temp;Humidity;BMP_temperature;BMP_pressure;BME280_temperature;BME280_humidity;BME280_pressure;Samples;Min_cycle;Max_cycle;Signal;HPM_P1;HPM_P2
2022/02/18 00:01:26;;;;;;;0.45;0.38;;;;;;;21.27;59.35;98190.75;5052270;28;20032;-63
2022/02/18 00:03:51;;;;;;;0.10;0.10;;;;;;;21.27;59.53;98196.22;5051915;28;20557;-63
2022/02/18 00:06:16;;;;;;;0.13;0.10;;;;;;;21.30;60.72;98184.78;5052216;28;20032;-64
2022/02/18 00:08:42;;;;;;;1.42;0.10;;;;;;;21.32;60.84;98201.75;5068606;28;20029;-63
2022/02/18 00:11:07;;;;;;;0.80;0.32;;;;;;;21.35;60.86;98196.88;5072034;28;20518;-63
2022/02/18 00:13:33;;;;;;;0.40;0.10;;;;;;;21.36;61.01;98209.47;5072156;28;20031;-62
2022/02/18 00:15:58;;;;;;;0.40;0.10;;;;;;;21.35;60.91;98216.84;5072014;28;20032;-63
2022/02/18 00:18:24;;;;;;;0.50;0.40;;;;;;;21.38;61.59;98212.75;5072111;28;20032;-64
2022/02/18 00:20:49;;;;;;;0.10;0.10;;;;;;;21.40;60.91;98216.88;5071889;28;20387;-63
2022/02/18 00:23:14;;;;;;;0.75;0.20;;;;;;;21.42;60.89;98212.00;5072008;28;20036;-63
2022/02/18 00:25:40;;;;;;;0.98;0.10;;;;;;;21.45;60.60;98216.94;5057279;28;20064;-64
2022/02/18 00:28:05;;;;;;;1.98;0.20;;;;;;;21.48;60.14;98210.13;5052124;28;20036;-63
2022/02/18 00:30:31;;;;;;;0.00;0.00;;;;;;;21.55;59.58;98224.44;5051991;28;20475;-64
2022/02/18 00:32:56;;;;;;;1.60;0.10;;;;;;;21.57;59.27;98219.56;5051757;28;20028;-63
2022/02/18 00:35:22;;;;;;;0.25;0.10;;;;;;;21.54;60.09;98215.44;5051880;28;20029;-63
2022/02/18 00:37:48;;;;;;;0.17;0.10;;;;;;;21.58;59.14;98218.47;5051653;28;20104;-63
2022/02/18 00:40:14;;;;;;;0.30;0.08;;;;;;;21.60;58.50;98216.31;5051932;28;20021;-63
2022/02/18 00:42:40;;;;;;;1.65;0.10;;;;;;;21.61;59.00;98217.94;5051721;28;20070;-64
2022/02/18 00:45:06;;;;;;;0.32;0.20;;;;;;;21.63;58.65;98216.63;5051644;28;20028;-63
2022/02/18 00:47:32;;;;;;;0.75;0.20;;;;;;;21.64;58.41;98228.38;5051896;28;20104;-63
2022/02/18 00:49:58;;;;;;;1.05;0.10;;;;;;;21.64;59.41;98233.84;5051496;28;20120;-64
2022/02/18 00:52:23;;;;;;;1.02;0.20;;;;;;;21.65;58.05;98235.50;5054706;28;20021;-64
2022/02/18 00:54:48;;;;;;;1.27;0.20;;;;;;;21.68;57.10;98229.53;5060539;23;20133;-63
2022/02/18 00:57:14;;;;;;;0.65;0.25;;;;;;;21.68;57.58;98231.44;5055447;28;20104;-64
2022/02/18 00:59:39;;;;;;;1.65;0.55;;;;;;;21.69;57.30;98242.13;5055388;28;20029;-63
2022/02/18 01:02:05;;;;;;;0.05;0.00;;;;;;;21.70;56.89;98237.47;5055238;28;20040;-64
2022/02/18 01:04:31;;;;;;;0.47;0.20;;;;;;;21.70;57.02;98249.25;5055472;28;20079;-63
2022/02/18 01:06:56;;;;;;;0.35;0.10;;;;;;;21.70;56.45;98243.78;5055127;28;20025;-63
2022/02/18 01:09:22;;;;;;;0.57;0.22;;;;;;;21.72;56.38;98246.25;5055304;28;20086;-65
2022/02/18 01:11:47;;;;;;;0.20;0.00;;;;;;;21.72;55.92;98255.28;5054894;28;20017;-63
2022/02/18 01:14:12;;;;;;;2.95;0.17;;;;;;;21.73;55.90;98259.66;5055247;28;20418;-63
2022/02/18 01:16:38;;;;;;;0.65;0.15;;;;;;;21.72;56.18;98266.22;5054101;28;20023;-63
2022/02/18 01:19:03;;;;;;;0.55;0.10;;;;;;;21.71;55.55;98250.91;5054907;28;20331;-63
2022/02/18 01:21:28;;;;;;;0.55;0.00;;;;;;;21.75;55.63;98262.13;5055429;28;20016;-63
2022/02/18 01:23:53;;;;;;;0.08;0.08;;;;;;;21.73;56.32;98270.59;5054434;28;20029;-63
2022/02/18 01:26:19;;;;;;;0.10;0.00;;;;;;;21.74;55.35;98269.50;5054677;28;20025;-63
2022/02/18 01:28:44;;;;;;;0.10;0.10;;;;;;;21.75;54.65;98279.38;5054679;28;20103;-64
2022/02/18 01:31:10;;;;;;;0.13;0.05;;;;;;;21.73;54.87;98291.66;5054799;28;20047;-63
2022/02/18 01:33:36;;;;;;;0.93;0.10;;;;;;;21.74;55.35;98294.13;5054809;28;20527;-63
2022/02/18 01:36:01;;;;;;;0.47;0.10;;;;;;;21.76;55.02;98307.53;5054609;28;20056;-64
2022/02/18 01:38:26;;;;;;;0.47;0.13;;;;;;;21.73;54.75;98292.47;5054821;28;20024;-63
2022/02/18 01:40:52;;;;;;;0.17;0.00;;;;;;;21.77;54.58;98304.56;5054482;28;20029;-64
2022/02/18 01:43:17;;;;;;;0.32;0.10;;;;;;;21.76;54.47;98302.91;5054577;28;20017;-63
2022/02/18 01:45:42;;;;;;;0.68;0.03;;;;;;;21.77;54.50;98299.06;5054496;28;20052;-63
2022/02/18 01:48:08;;;;;;;0.47;0.20;;;;;;;21.77;54.23;98299.06;5054490;28;20195;-64
2022/02/18 01:50:33;;;;;;;0.10;0.10;;;;;;;21.76;54.29;98299.34;5054393;28;20106;-62
2022/02/18 01:53:00;;;;;;;0.40;0.10;;;;;;;21.78;54.03;98299.91;5054290;28;20052;-64
2022/02/18 01:55:27;;;;;;;2.58;0.17;;;;;;;21.77;54.27;98304.56;5054123;28;20048;-63
2022/02/18 01:57:55;;;;;;;0.40;0.10;;;;;;;21.77;54.16;98301.81;5054081;28;20102;-63
2022/02/18 02:00:27;;;;;;;0.47;0.20;;;;;;;21.77;53.99;98310.00;5054365;28;20021;-64
2022/02/18 02:02:53;;;;;;;0.20;0.10;;;;;;;21.77;54.46;98304.56;5053772;28;20086;-63
2022/02/18 02:05:20;;;;;;;0.88;0.20;;;;;;;21.77;54.31;98320.13;5054179;28;20052;-64
2022/02/18 02:07:46;;;;;;;0.85;0.10;;;;;;;21.78;54.42;98322.59;5053940;28;20107;-63
2022/02/18 02:10:13;;;;;;;0.20;0.10;;;;;;;21.78;54.33;98317.13;5054091;28;20056;-63
2022/02/18 02:12:50;;;;;;;0.13;0.10;;;;;;;21.78;54.08;98324.50;5053997;28;20029;-64
2022/02/18 02:15:17;;;;;;;0.88;0.10;;;;;;;21.77;53.82;98325.59;5053981;28;20029;-63
2022/02/18 02:17:43;;;;;;;0.40;0.08;;;;;;;21.77;53.68;98320.94;5053870;28;20112;-64
2022/02/18 02:20:09;;;;;;;1.08;0.25;;;;;;;21.78;54.58;98317.13;5053909;28;20029;-63
2022/02/18 02:22:36;;;;;;;1.02;0.20;;;;;;;21.80;54.01;98319.63;5050220;28;20033;-63
2022/02/18 02:25:01;;;;;;;0.73;0.20;;;;;;;21.77;54.33;98320.13;5033843;28;20234;-63
2022/02/18 02:27:29;;;;;;;0.55;0.00;;;;;;;21.76;54.33;98313.84;5033762;28;20372;-64
2022/02/18 02:29:54;;;;;;;2.08;0.17;;;;;;;21.74;53.82;98316.00;5033474;28;20029;-64
2022/02/18 02:32:19;;;;;;;0.10;0.10;;;;;;;21.76;54.02;98313.84;5033814;28;20021;-64
2022/02/18 02:34:44;;;;;;;0.30;0.05;;;;;;;21.76;53.98;98313.84;5033644;28;20033;-63
2022/02/18 02:37:10;;;;;;;0.60;0.10;;;;;;;21.76;54.56;98316.56;5033618;28;20457;-64
2022/02/18 02:39:37;;;;;;;1.27;0.20;;;;;;;21.76;54.40;98321.22;5033650;28;20100;-63
2022/02/18 02:42:04;;;;;;;0.85;0.30;;;;;;;21.77;54.34;98317.41;5033358;28;20029;-63
2022/02/18 02:44:30;;;;;;;1.00;0.10;;;;;;;21.77;53.99;98315.50;5033627;28;20031;-64
2022/02/18 02:46:56;;;;;;;1.17;0.20;;;;;;;21.78;53.58;98321.78;5033591;28;20104;-63
2022/02/18 02:49:21;;;;;;;1.42;0.40;;;;;;;21.78;53.86;98321.78;5033448;28;20037;-63
2022/02/18 02:51:46;;;;;;;0.50;0.10;;;;;;;21.79;54.09;98317.97;5035392;28;20054;-63
2022/02/18 02:54:12;;;;;;;0.30;0.00;;;;;;;21.75;53.83;98325.84;5033194;28;20038;-63
2022/02/18 02:56:38;;;;;;;0.20;0.15;;;;;;;21.79;53.87;98326.16;5033320;28;20048;-64
2022/02/18 02:59:03;;;;;;;1.83;0.20;;;;;;;21.77;53.85;98331.88;5033178;28;20044;-63
2022/02/18 03:01:29;;;;;;;2.28;0.82;;;;;;;21.77;53.58;98336.53;5033367;28;20115;-63
2022/02/18 03:03:54;;;;;;;0.80;0.20;;;;;;;21.77;53.88;98333.81;5031643;28;20025;-64
2022/02/18 03:06:19;;;;;;;0.85;0.10;;;;;;;21.76;54.25;98335.72;5031980;28;20116;-64
2022/02/18 03:08:45;;;;;;;0.95;0.30;;;;;;;21.75;53.29;98328.59;5032945;28;20033;-64
2022/02/18 03:11:16;;;;;;;0.30;0.13;;;;;;;21.76;54.47;98341.19;5033065;28;20373;-63
2022/02/18 03:13:48;;;;;;;0.70;0.10;;;;;;;21.75;53.93;98334.06;5032294;28;20033;-63
2022/02/18 03:16:14;;;;;;;0.55;0.20;;;;;;;21.75;53.78;98336.78;5033016;28;20148;-64
2022/02/18 03:18:40;;;;;;;0.38;0.10;;;;;;;21.76;53.55;98334.88;5032870;28;20029;-63
2022/02/18 03:21:06;;;;;;;0.70;0.10;;;;;;;21.77;53.43;98342.81;5037046;28;20040;-63
2022/02/18 03:23:33;;;;;;;1.45;0.10;;;;;;;21.76;53.55;98338.44;5051597;28;20074;-64
2022/02/18 03:25:58;;;;;;;0.40;0.10;;;;;;;21.76;53.57;98341.19;5052485;28;20025;-64
2022/02/18 03:28:23;;;;;;;0.10;0.03;;;;;;;21.76;53.65;98340.34;5052782;28;20035;-64
2022/02/18 03:30:48;;;;;;;0.43;0.10;;;;;;;21.74;53.74;98340.59;5052382;28;20044;-63
2022/02/18 03:33:14;;;;;;;1.67;0.10;;;;;;;21.75;53.44;98339.53;5052654;28;20029;-64
2022/02/18 03:35:41;;;;;;;0.08;0.05;;;;;;;21.74;53.89;98343.34;5052493;28;20029;-64
2022/02/18 03:38:06;;;;;;;0.30;0.03;;;;;;;21.75;53.96;98344.16;5052425;28;20103;-64
2022/02/18 03:40:32;;;;;;;0.70;0.15;;;;;;;21.76;53.99;98335.72;5052644;28;20112;-63
2022/02/18 03:42:57;;;;;;;0.75;0.20;;;;;;;21.73;53.71;98341.69;5052321;28;20064;-64
2022/02/18 03:45:23;;;;;;;0.10;0.10;;;;;;;21.75;53.90;98347.72;5052494;28;20059;-64
2022/02/18 03:47:48;;;;;;;0.25;0.00;;;;;;;21.76;54.10;98351.28;5052188;28;20059;-64
2022/02/18 03:50:14;;;;;;;0.15;0.10;;;;;;;21.75;53.91;98347.72;5051992;28;20025;-63
2022/02/18 03:52:39;;;;;;;1.13;0.10;;;;;;;21.74;53.26;98321.47;5035664;28;20103;-63
2022/02/18 03:55:05;;;;;;;0.75;0.22;;;;;;;21.74;53.54;98337.03;5051900;28;20359;-64
2022/02/18 03:57:30;;;;;;;0.17;0.08;;;;;;;21.74;53.38;98337.03;5051308;28;20104;-63
2022/02/18 03:59:56;;;;;;;0.70;0.10;;;;;;;21.75;53.82;98377.81;5052059;28;20070;-64
2022/02/18 04:02:21;;;;;;;0.38;0.10;;;;;;;21.75;53.39;98366.88;5052359;28;20032;-64
2022/02/18 04:04:46;;;;;;;0.47;0.03;;;;;;;21.75;54.02;98371.50;5046284;28;20021;-63
2022/02/18 04:07:11;;;;;;;0.10;0.00;;;;;;;21.76;53.05;98374.00;5032178;28;20040;-64
2022/02/18 04:09:37;;;;;;;0.52;0.10;;;;;;;21.74;53.57;98378.88;5032218;28;20037;-63
2022/02/18 04:12:04;;;;;;;0.75;0.10;;;;;;;21.73;53.69;98360.81;5032002;28;20022;-63
2022/02/18 04:14:30;;;;;;;0.82;0.10;;;;;;;21.73;53.19;98366.31;5032274;28;20029;-63
2022/02/18 04:16:55;;;;;;;0.70;0.10;;;;;;;21.73;53.52;98358.09;5032075;28;20027;-63
2022/02/18 04:19:20;;;;;;;0.30;0.15;;;;;;;21.76;53.26;98368.53;5032181;28;20037;-64
2022/02/18 04:21:46;;;;;;;1.02;0.40;;;;;;;21.74;53.82;98364.38;5044226;28;20092;-63
2022/02/18 04:24:11;;;;;;;0.10;0.05;;;;;;;21.75;53.38;98366.88;5052136;28;20480;-63
2022/02/18 04:26:37;;;;;;;0.52;0.10;;;;;;;21.74;53.67;98357.00;5055471;28;20027;-63
2022/02/18 04:29:02;;;;;;;0.30;0.10;;;;;;;21.73;53.19;98357.28;5055938;28;20029;-63
2022/02/18 04:31:27;;;;;;;0.45;0.10;;;;;;;21.73;53.34;98352.63;5056074;28;20115;-63
2022/02/18 04:33:52;;;;;;;0.60;0.10;;;;;;;21.74;52.83;98362.47;5055975;28;20024;-63
2022/02/18 04:36:18;;;;;;;0.50;0.28;;;;;;;21.71;53.82;98360.25;5055972;28;20021;-63
2022/02/18 04:38:43;;;;;;;0.55;0.40;;;;;;;21.73;53.61;98362.72;5055719;28;20025;-63
2022/02/18 04:41:09;;;;;;;0.63;0.10;;;;;;;21.72;53.27;98359.19;5055782;28;20028;-63
2022/02/18 04:43:34;;;;;;;0.32;0.10;;;;;;;21.72;52.90;98367.38;5055778;28;20498;-63
2022/02/18 04:45:59;;;;;;;0.22;0.00;;;;;;;21.71;52.76;98360.25;5055595;28;20119;-63
2022/02/18 04:48:25;;;;;;;1.10;0.10;;;;;;;21.73;53.48;98369.03;5055788;28;20210;-63
2022/02/18 04:50:50;;;;;;;1.05;0.20;;;;;;;21.74;53.28;98380.78;5048199;28;20025;-64
2022/02/18 04:53:15;;;;;;;0.10;0.10;;;;;;;21.74;53.23;98384.34;5035513;28;20512;-63
2022/02/18 04:55:42;;;;;;;0.95;0.57;;;;;;;21.72;53.04;98389.25;5035729;28;20030;-63
2022/02/18 04:58:07;;;;;;;0.15;0.10;;;;;;;21.71;53.24;98387.59;5035898;28;20028;-63
2022/02/18 05:00:33;;;;;;;0.20;0.10;;;;;;;21.80;52.93;98391.53;5035494;28;20037;-64
2022/02/18 05:02:59;;;;;;;0.73;0.10;;;;;;;22.90;50.76;98378.66;5035608;28;20049;-64
2022/02/18 05:05:24;;;;;;;0.00;0.00;;;;;;;23.17;50.20;98366.78;5034218;28;20029;-64
2022/02/18 05:07:50;;;;;;;0.60;0.08;;;;;;;23.36;50.25;98376.28;5035120;28;20022;-63
2022/02/18 05:10:15;;;;;;;0.20;0.10;;;;;;;23.50;49.96;98382.94;5035327;28;20030;-64
2022/02/18 05:12:40;;;;;;;0.80;0.10;;;;;;;23.61;49.83;98383.88;5035196;28;20127;-64
2022/02/18 05:15:06;;;;;;;0.77;0.20;;;;;;;23.72;50.39;98379.28;5035240;28;20030;-64
2022/02/18 05:17:32;;;;;;;1.20;0.15;;;;;;;23.79;50.33;98379.88;5035289;28;20103;-63
2022/02/18 05:19:58;;;;;;;0.20;0.00;;;;;;;23.85;49.87;98374.16;5035247;28;20045;-63
2022/02/18 05:22:23;;;;;;;0.17;0.10;;;;;;;23.92;50.90;98380.22;5035576;28;20439;-64
2022/02/18 05:24:48;;;;;;;0.40;0.10;;;;;;;23.98;50.22;98389.28;5034858;28;20120;-63
2022/02/18 05:27:14;;;;;;;0.50;0.20;;;;;;;24.01;50.27;98389.56;5034979;28;20036;-63
2022/02/18 05:29:39;;;;;;;1.15;0.30;;;;;;;24.07;50.51;98384.97;5034901;28;20029;-63
2022/02/18 05:32:05;;;;;;;0.43;0.10;;;;;;;;;;5033529;28;20060;-63
2022/02/18 05:34:31;;;;;;;1.60;0.55;;;;;;;24.17;51.13;98397.88;5034874;28;20029;-63
2022/02/18 05:36:56;;;;;;;0.57;0.28;;;;;;;24.22;50.51;98401.50;5032935;28;20112;-63
2022/02/18 05:39:21;;;;;;;0.80;0.08;;;;;;;24.26;50.81;98408.09;5034807;28;20079;-64
2022/02/18 05:41:46;;;;;;;0.40;0.10;;;;;;;24.32;51.33;98405.38;5033238;28;20024;-63
2022/02/18 05:44:12;;;;;;;0.45;0.10;;;;;;;24.32;51.47;98408.13;5033431;28;20083;-63
2022/02/18 05:46:37;;;;;;;0.88;0.20;;;;;;;24.37;50.68;98399.94;5034661;28;20487;-65
2022/02/18 05:49:03;;;;;;;0.55;0.10;;;;;;;24.38;51.36;98398.84;5034472;28;20072;-63
2022/02/18 05:51:28;;;;;;;2.40;0.20;;;;;;;24.40;51.35;98402.16;5048551;28;20084;-63
2022/02/18 05:53:53;;;;;;;0.50;0.10;;;;;;;24.43;51.56;98401.59;5053975;28;20120;-64
2022/02/18 05:56:19;;;;;;;0.45;0.15;;;;;;;24.44;51.84;98392.25;5053159;28;20044;-63
2022/02/18 05:58:46;;;;;;;0.95;0.15;;;;;;;24.46;51.60;98401.06;5054475;28;20040;-63
2022/02/18 06:01:11;;;;;;;1.27;0.13;;;;;;;24.49;52.02;98386.78;5054279;28;20021;-63
2022/02/18 06:03:36;;;;;;;1.40;0.20;;;;;;;24.52;51.70;98399.97;5054210;28;20423;-63
2022/02/18 06:06:02;;;;;;;0.30;0.20;;;;;;;24.55;51.31;98388.47;5054031;28;20363;-64
2022/02/18 06:08:28;;;;;;;0.43;0.17;;;;;;;24.55;52.11;98393.94;5054319;28;20028;-63
2022/02/18 06:10:53;;;;;;;1.02;0.25;;;;;;;24.56;51.79;98396.44;5053877;28;20025;-63
2022/02/18 06:13:18;;;;;;;0.65;0.10;;;;;;;24.58;51.77;98398.91;5054093;28;20401;-63
2022/02/18 06:15:44;;;;;;;0.52;0.10;;;;;;;24.59;52.11;98397.81;5053942;28;20025;-63
2022/02/18 06:18:10;;;;;;;0.45;0.15;;;;;;;24.60;51.36;98397.53;5054000;28;20056;-64
2022/02/18 06:20:35;;;;;;;1.02;0.22;;;;;;;24.63;51.29;98401.66;5046919;28;20089;-63
2022/02/18 06:23:00;;;;;;;0.25;0.10;;;;;;;24.65;51.66;98404.94;5033890;28;20109;-63
2022/02/18 06:25:26;;;;;;;0.17;0.10;;;;;;;24.68;51.72;98409.06;5037559;28;20379;-64
2022/02/18 06:28:03;;;;;;;0.52;0.25;;;;;;;24.68;51.39;98398.91;5033467;28;20032;-63
2022/02/18 06:30:28;;;;;;;0.10;0.03;;;;;;;24.71;51.46;98408.56;5033803;28;20369;-64
2022/02/18 06:32:53;;;;;;;0.22;0.10;;;;;;;24.70;51.62;98410.47;5033601;28;20105;-63
2022/02/18 06:35:19;;;;;;;0.65;0.10;;;;;;;24.70;51.71;98418.72;5033765;28;20029;-63
2022/02/18 06:37:44;;;;;;;0.73;0.10;;;;;;;24.74;51.15;98422.56;5033534;28;20025;-64
2022/02/18 06:40:10;;;;;;;1.83;0.15;;;;;;;24.75;51.38;98418.72;5033800;28;20018;-63
2022/02/18 06:42:35;;;;;;;1.15;0.20;;;;;;;24.78;51.26;98420.09;5033533;28;20487;-63
2022/02/18 06:45:01;;;;;;;0.30;0.10;;;;;;;24.76;51.88;98420.38;5033542;28;20241;-64
2022/02/18 06:47:26;;;;;;;0.52;0.10;;;;;;;24.77;51.57;98423.94;5033548;28;20025;-64
2022/02/18 06:49:51;;;;;;;0.85;0.28;;;;;;;24.80;51.72;98415.97;5032480;28;20557;-63
2022/02/18 06:52:16;;;;;;;2.58;0.10;;;;;;;24.79;52.23;98417.06;5053379;28;20033;-64
2022/02/18 06:54:42;;;;;;;0.57;0.30;;;;;;;24.80;51.58;98412.41;5053076;28;20049;-63
2022/02/18 06:57:07;;;;;;;1.55;0.30;;;;;;;24.84;51.24;98425.31;5053199;28;20436;-64
2022/02/18 06:59:32;;;;;;;0.73;0.17;;;;;;;24.84;51.39;98425.31;5051822;28;20025;-63
2022/02/18 07:01:57;;;;;;;0.73;0.20;;;;;;;24.84;51.18;98433.56;5053069;28;20071;-63
2022/02/18 07:04:24;;;;;;;0.17;0.17;;;;;;;24.85;51.61;98437.97;5053224;28;20068;-64
2022/02/18 07:06:50;;;;;;;0.90;0.30;;;;;;;24.88;51.45;98425.63;5051572;28;20052;-64
2022/02/18 07:09:16;;;;;;;1.33;0.32;;;;;;;24.89;51.37;98432.75;5053002;28;20503;-64
2022/02/18 07:11:41;;;;;;;1.85;0.20;;;;;;;24.92;51.65;98425.91;5052755;28;20107;-63
2022/02/18 07:14:09;;;;;;;0.47;0.08;;;;;;;24.89;51.01;98441.00;5052903;28;20025;-64
2022/02/18 07:16:35;;;;;;;0.40;0.10;;;;;;;24.92;50.94;98425.91;5052948;28;20028;-64
2022/02/18 07:19:00;;;;;;;0.70;0.20;;;;;;;24.92;51.50;98436.88;5052742;28;20028;-64
2022/02/18 07:21:26;;;;;;;1.08;0.17;;;;;;;24.92;51.15;98436.88;5037081;28;20435;-63
2022/02/18 07:23:51;;;;;;;0.65;0.13;;;;;;;24.94;50.98;98442.94;5032601;28;20433;-64
2022/02/18 07:26:17;;;;;;;0.52;0.20;;;;;;;24.94;51.31;98445.69;5032861;28;20025;-64
2022/02/18 07:28:42;;;;;;;2.28;0.32;;;;;;;24.95;50.48;98439.09;5032647;28;20029;-63
2022/02/18 07:31:08;;;;;;;1.15;0.30;;;;;;;24.93;50.90;98447.59;5032605;28;20071;-64
2022/02/18 07:33:33;;;;;;;0.73;0.20;;;;;;;24.96;50.72;98449.81;5032614;28;20083;-63
2022/02/18 07:35:58;;;;;;;0.38;0.10;;;;;;;25.00;50.52;98461.94;5032560;28;20062;-64
2022/02/18 07:38:23;;;;;;;1.90;0.20;;;;;;;24.99;50.74;98470.41;5032765;28;20464;-63
2022/02/18 07:40:48;;;;;;;0.30;0.08;;;;;;;24.98;50.56;98469.59;5032366;28;20029;-63
2022/02/18 07:43:14;;;;;;;0.15;0.13;;;;;;;24.97;50.32;98467.13;5032622;28;20060;-64
2022/02/18 07:45:39;;;;;;;1.15;0.17;;;;;;;24.97;51.00;98472.63;5032643;28;20022;-63
2022/02/18 07:48:05;;;;;;;1.65;0.15;;;;;;;24.99;50.94;98467.66;5032521;28;20029;-63
2022/02/18 07:50:30;;;;;;;0.70;0.10;;;;;;;25.00;50.85;98463.84;5040117;28;20029;-64
2022/02/18 07:52:55;;;;;;;0.40;0.25;;;;;;;25.02;50.64;98469.91;5051709;28;20052;-63
2022/02/18 07:55:21;;;;;;;0.52;0.15;;;;;;;25.04;50.63;98478.72;5052660;28;20032;-63
2022/02/18 07:57:47;;;;;;;0.75;0.20;;;;;;;25.06;50.78;98476.53;5052000;28;20384;-63
2022/02/18 08:00:13;;;;;;;0.47;0.20;;;;;;;25.06;51.00;98476.53;5052013;28;20036;-63
2022/02/18 08:02:39;;;;;;;0.40;0.20;;;;;;;25.06;50.80;98476.53;5052145;28;20024;-63
2022/02/18 08:05:05;;;;;;;0.95;0.20;;;;;;;25.06;50.50;98482.03;5052051;28;20380;-63
2022/02/18 08:07:30;;;;;;;0.28;0.10;;;;;;;25.06;50.67;98471.84;5052155;28;20025;-63
2022/02/18 08:09:55;;;;;;;0.38;0.10;;;;;;;25.05;51.06;98483.13;5052208;28;20380;-64
2022/02/18 08:12:21;;;;;;;0.40;0.20;;;;;;;25.05;50.67;98485.88;5052481;28;20036;-64
2022/02/18 08:14:46;;;;;;;0.17;0.10;;;;;;;25.07;50.96;98489.16;5052231;28;20029;-63
2022/02/18 08:17:11;;;;;;;0.73;0.35;;;;;;;25.09;50.24;98492.47;5052176;28;20025;-64
2022/02/18 08:19:39;;;;;;;0.52;0.20;;;;;;;25.08;50.94;98490.81;5048787;28;20067;-63
2022/02/18 08:22:04;;;;;;;0.70;0.55;;;;;;;25.08;50.33;98496.31;5032178;28;20029;-63
2022/02/18 08:24:31;;;;;;;0.30;0.20;;;;;;;25.11;51.25;98495.78;5032161;28;20128;-64
2022/02/18 08:26:57;;;;;;;0.52;0.20;;;;;;;25.11;50.33;98495.78;5030701;28;20113;-63
2022/02/18 08:29:23;;;;;;;1.67;0.28;;;;;;;25.11;50.75;98504.00;5032040;28;20033;-64
2022/02/18 08:31:54;;;;;;;0.57;0.20;;;;;;;25.10;50.98;98503.19;5031757;28;20037;-64
2022/02/18 08:34:19;;;;;;;0.13;0.00;;;;;;;25.11;51.00;98504.00;5030837;28;20468;-63
2022/02/18 08:36:44;;;;;;;0.85;0.20;;;;;;;25.12;51.12;98508.41;5031880;28;20032;-64
2022/02/18 08:39:10;;;;;;;0.15;0.00;;;;;;;25.12;50.88;98513.91;5050220;28;20021;-64
2022/02/18 08:41:37;;;;;;;0.50;0.13;;;;;;;25.13;51.11;98510.06;5051730;28;20032;-64
2022/02/18 08:44:03;;;;;;;0.32;0.05;;;;;;;25.15;50.13;98513.38;5051862;28;20033;-63
2022/02/18 08:46:30;;;;;;;0.63;0.10;;;;;;;25.15;50.67;98513.38;5051928;28;20410;-63
2022/02/18 08:48:55;;;;;;;0.38;0.10;;;;;;;25.17;50.57;98522.97;5051731;28;20052;-64
2022/02/18 08:51:21;;;;;;;0.85;0.20;;;;;;;25.19;50.78;98533.72;5034531;28;20033;-64
2022/02/18 08:53:47;;;;;;;1.38;0.10;;;;;;;25.17;50.09;98524.91;5031431;28;20493;-64
2022/02/18 08:56:12;;;;;;;0.47;0.17;;;;;;;25.18;50.77;98523.81;5031905;28;20044;-64
2022/02/18 08:58:38;;;;;;;1.30;0.10;;;;;;;25.18;50.60;98530.13;5031808;28;20029;-63
2022/02/18 09:01:03;;;;;;;1.05;0.10;;;;;;;25.19;50.26;98531.81;5031631;28;20017;-63
2022/02/18 09:03:29;;;;;;;0.60;0.32;;;;;;;25.19;50.79;98528.22;5031895;28;20028;-63
2022/02/18 09:05:55;;;;;;;0.60;0.08;;;;;;;25.19;50.52;98533.72;5031628;28;20029;-63
2022/02/18 09:08:21;;;;;;;0.15;0.10;;;;;;;25.20;51.02;98538.13;5032154;28;20486;-63
2022/02/18 09:10:49;;;;;;;0.17;0.10;;;;;;;25.18;50.29;98530.13;5030250;28;20512;-64
2022/02/18 09:13:14;;;;;;;0.50;0.30;;;;;;;25.20;50.53;98532.63;5034215;28;20029;-63
2022/02/18 09:15:40;;;;;;;1.58;0.22;;;;;;;25.23;50.84;98521.09;5035116;28;20072;-63
2022/02/18 09:18:05;;;;;;;0.63;0.10;;;;;;;25.23;50.34;98515.59;5035095;28;20022;-64
2022/02/18 09:20:33;;;;;;;0.45;0.10;;;;;;;25.22;50.38;98518.63;5047345;28;20093;-64
2022/02/18 09:22:58;;;;;;;0.40;0.15;;;;;;;25.23;51.06;98537.59;5055014;28;20044;-63
2022/02/18 09:25:23;;;;;;;0.43;0.20;;;;;;;25.21;50.33;98533.47;5055242;28;20460;-64
2022/02/18 09:27:48;;;;;;;1.10;0.20;;;;;;;25.23;50.48;98542.25;5054694;28;20033;-63
2022/02/18 09:30:14;;;;;;;0.73;0.10;;;;;;;25.23;50.35;98543.09;5052088;28;20028;-64
2022/02/18 09:32:39;;;;;;;0.55;0.10;;;;;;;25.22;50.92;98546.94;5034696;28;20060;-65
2022/02/18 09:35:05;;;;;;;0.38;0.10;;;;;;;25.22;50.43;98546.94;5034887;28;20080;-64
2022/02/18 09:37:30;;;;;;;0.40;0.20;;;;;;;25.26;50.57;98553.53;5034791;28;20048;-64
2022/02/18 09:39:56;;;;;;;0.60;0.10;;;;;;;25.26;50.19;98548.03;5034634;28;20025;-64
2022/02/18 09:42:22;;;;;;;0.65;0.10;;;;;;;25.25;50.87;98557.38;5034839;28;20021;-64
2022/02/18 09:44:49;;;;;;;0.20;0.10;;;;;;;25.26;51.10;98570.03;5034536;28;20068;-63
2022/02/18 09:47:16;;;;;;;1.33;0.40;;;;;;;25.27;51.12;98570.88;5034618;28;20026;-64
2022/02/18 09:49:42;;;;;;;1.08;0.13;;;;;;;25.27;50.09;98574.44;5039622;28;20238;-63
2022/02/18 09:52:09;;;;;;;0.80;0.30;;;;;;;25.26;50.34;98581.03;5053236;28;20067;-63
2022/02/18 09:54:35;;;;;;;2.05;0.28;;;;;;;25.29;50.61;98580.47;5054172;28;20061;-64
2022/02/18 09:57:00;;;;;;;0.50;0.20;;;;;;;25.27;50.29;98581.84;5054323;28;20054;-64
2022/02/18 09:59:27;;;;;;;0.57;0.10;;;;;;;25.28;49.97;98584.34;5054397;28;20103;-64
2022/02/18 10:01:52;;;;;;;0.75;0.25;;;;;;;25.28;50.19;98573.34;5054128;28;20043;-64
2022/02/18 10:04:17;;;;;;;0.45;0.10;;;;;;;25.29;50.59;98574.16;5054339;28;20021;-63
2022/02/18 10:06:43;;;;;;;1.13;0.20;;;;;;;25.30;50.38;98570.31;5053078;28;20029;-65
2022/02/18 10:09:08;;;;;;;3.13;0.40;;;;;;;25.30;50.78;98576.63;5054140;28;20021;-63
2022/02/18 10:11:51;;;;;;;0.80;0.10;;;;;;;25.31;50.50;98572.78;5053978;28;20044;-64
2022/02/18 10:14:16;;;;;;;0.20;0.17;;;;;;;25.31;50.71;98575.53;5054206;28;20056;-63
2022/02/18 10:16:42;;;;;;;0.17;0.10;;;;;;;25.30;50.88;98576.63;5053962;28;20460;-64
2022/02/18 10:19:10;;;;;;;0.57;0.10;;;;;;;25.32;50.14;98574.44;5050735;28;20026;-63
2022/02/18 10:21:37;;;;;;;0.52;0.17;;;;;;;25.30;50.33;98571.13;5033904;28;20465;-63
2022/02/18 10:24:17;;;;;;;1.15;0.10;;;;;;;25.31;50.11;98572.78;5032251;28;20029;-64
2022/02/18 10:26:53;;;;;;;1.08;0.30;;;;;;;25.32;50.23;98577.19;5033679;28;20034;-64
2022/02/18 10:29:25;;;;;;;1.10;0.20;;;;;;;25.33;49.89;98576.09;5033864;28;20021;-64
2022/02/18 10:32:11;;;;;;;0.93;0.20;;;;;;;25.32;50.27;98574.44;5033525;28;20036;-64
2022/02/18 10:34:58;;;;;;;0.85;0.10;;;;;;;25.33;50.38;98575.25;5032462;28;20026;-64
2022/02/18 10:37:26;;;;;;;1.25;0.17;;;;;;;25.36;49.90;98580.22;5033559;28;20542;-64
2022/02/18 10:40:05;;;;;;;1.27;0.25;;;;;;;25.35;50.33;98579.38;5036993;28;20028;-64
2022/02/18 10:42:30;;;;;;;0.55;0.20;;;;;;;25.35;50.53;98595.88;5054092;28;20345;-63
2022/02/18 10:45:12;;;;;;;0.93;0.55;;;;;;;25.35;50.10;98601.38;5053385;28;20518;-63
2022/02/18 10:47:39;;;;;;;0.52;0.03;;;;;;;25.34;50.45;98604.41;5053281;28;20020;-64
2022/02/18 10:50:21;;;;;;;0.43;0.17;;;;;;;25.37;50.49;98615.72;5053360;28;20033;-64
2022/02/18 10:53:14;;;;;;;0.90;0.30;;;;;;;25.34;50.14;98599.75;5053016;28;20052;-64
2022/02/18 10:55:55;;;;;;;0.20;0.10;;;;;;;25.35;50.32;98612.38;5053078;28;20024;-64
2022/02/18 10:58:30;;;;;;;0.73;0.10;;;;;;;25.38;50.24;98617.38;5053351;28;20031;-64
2022/02/18 11:01:11;;;;;;;2.15;0.22;;;;;;;25.37;50.12;98618.47;5053040;28;20549;-64
2022/02/18 11:03:42;;;;;;;0.95;0.30;;;;;;;25.38;50.24;98628.38;5051740;28;20116;-63
2022/02/18 11:06:12;;;;;;;0.17;0.10;;;;;;;25.38;50.38;98616.56;5053201;28;20021;-64
2022/02/18 11:08:37;;;;;;;0.45;0.20;;;;;;;25.38;50.72;98622.06;5052993;28;20033;-63
2022/02/18 11:11:10;;;;;;;0.22;0.20;;;;;;;25.40;50.22;98617.09;5039308;28;20034;-63
2022/02/18 11:13:37;;;;;;;0.40;0.10;;;;;;;25.39;49.71;98619.03;5032907;28;20037;-64
2022/02/18 11:16:04;;;;;;;0.77;0.20;;;;;;;25.40;49.94;98619.84;5032979;28;20353;-64
2022/02/18 11:18:30;;;;;;;1.13;0.20;;;;;;;25.39;50.14;98624.53;5033078;28;20033;-64
2022/02/18 11:20:57;;;;;;;2.00;0.25;;;;;;;25.39;50.52;98624.53;5032781;28;20021;-64
2022/02/18 11:23:22;;;;;;;0.22;0.03;;;;;;;25.38;50.37;98619.31;5031613;28;20033;-63
2022/02/18 11:25:47;;;;;;;0.50;0.10;;;;;;;25.40;50.21;98631.69;5032577;28;20357;-64
2022/02/18 11:28:13;;;;;;;0.57;0.10;;;;;;;25.44;50.49;98632.78;5032914;28;20449;-64
2022/02/18 11:30:43;;;;;;;1.63;0.40;;;;;;;25.40;50.10;98637.19;5031329;28;20055;-63